Latest Coastal Weather Observations for Cape Sorell

IDT60701

Issued at 10:52 pm EDT Friday 20 January 2017 (issued every 10 minutes, with the page automatically refreshed every 10 minutes)

About coastal observations | Map of coastal stations | Coastal observations for TAS | Marine services | Other Formats
Station Details ID: 097000 Name: CAPE SORELL Lat: -42.20 Lon: 145.17 Height: 19.3 m
Data from the previous 72 hours. | See also: Recent months at Cape Sorell
Date/Time
EDT
Temp
°C
Wind Pressure Rain since
9am
mm
Weather Cloud Vis
km
Sea
Height
m
Swell
Dir  Spd
kts
Gust
kts
hPa Trend Height
m
Period
s
Dir
20/10:30pm 13.0 SSW 11 15 1007.0 - 0.6 - - - - - - -
20/10:00pm 13.0 SW 14 17 1006.7 - 0.6 - - - - - - -
20/09:30pm 13.2 SW 16 18 1006.2 - 0.6 - - - - - - -
20/09:00pm 13.2 SW 14 16 1005.8 - 0.6 - - - - - - -
20/08:30pm 13.4 SSW 15 18 1005.4 - 0.6 - - - - - - -
20/08:00pm 13.8 SSW 17 21 1005.0 - 0.6 - - - - - - -
20/07:30pm 14.1 SSW 18 21 1004.2 - 0.6 - - - - - - -
20/07:00pm 14.0 SSW 21 24 1004.0 - 0.6 - - - - - - -
20/06:30pm 14.4 SSW 20 23 1003.7 - 0.6 - - - - - - -
20/06:00pm 14.7 SSW 20 24 1003.1 - 0.6 - - - - - - -
20/05:30pm 14.6 SSW 23 26 1002.5 - 0.6 - - - - - - -
20/05:00pm 14.5 SSW 25 29 1001.9 - 0.6 - - - - - - -
20/04:30pm 14.5 SSW 27 30 1001.3 - 0.6 - - - - - - -
20/04:00pm 15.9 SSW 26 30 1000.3 - 0.6 - - - - - - -
20/03:30pm 15.5 SSW 25 30 999.5 - 0.6 - - - - - - -
20/03:00pm 15.7 SSW 24 29 998.9 - 0.6 - - - - - - -
20/02:30pm 16.3 SSW 24 28 998.5 - 0.6 - - - - - - -
20/02:00pm 15.8 SSW 23 26 998.5 - 0.6 - - - - - - -
20/01:30pm 15.4 SSW 21 24 998.5 - 0.6 - - - - - - -
20/01:00pm 15.6 SSW 23 27 998.0 - 0.6 - - - - - - -
20/12:30pm 15.3 SSW 19 23 997.6 - 0.6 - - - - - - -
20/12:00pm 15.0 S 12 14 997.4 - 0.6 Recent precip. - - - - - -
20/11:30am 13.4 SSE 10 14 997.0 - 0.6 - - - - - - -
20/11:00am 12.9 S 12 16 996.7 - 0.4 - - - - - - -
20/10:30am 12.9 S 12 17 996.9 - 0.4 - - - - - - -
20/10:00am 12.6 S 12 16 997.0 - 0.4 - - - - - - -
20/09:30am 12.3 S 11 15 997.5 - 0.4 - - - - - - -
20/09:00am 12.1 SSE 11 16 997.6 - 7.0 Recent precip. - - - - - -
20/08:30am 11.8 SE 14 19 997.6 - 6.8 - - - - - - -
20/08:00am 11.7 SSE 13 19 997.8 - 6.6 - - - - - - -
20/07:30am 11.6 SSE 12 17 998.0 - 6.0 - - - - - - -
20/07:00am 11.5 SSE 11 14 998.3 - 5.6 - - - - - - -
20/06:30am 11.5 SSE 11 15 998.7 - 5.0 - - - - - - -
20/06:00am 11.6 SSE 12 17 998.7 - 4.6 Rain - - - - - -
20/05:30am 11.6 SE 10 14 999.2 - 4.2 - - - - - - -
20/05:00am 12.3 SSE 12 17 999.7 - 3.2 - - - - - - -
20/04:30am 12.6 SE 10 13 998.9 - 1.2 - - - - - - -
20/04:00am 12.8 SE 9 11 999.2 - 0.8 - - - - - - -
20/03:30am 13.2 SE 7 9 1000.8 - 0.8 - - - - - - -
20/03:00am 13.6 E 7 9 1002.0 - 0.2 Recent precip. - - - - - -
20/02:30am 13.6 ESE 8 10 1003.0 - 0.2 - - - - - - -
20/02:00am 14.4 CALM 0 0 1004.4 - 0.0 - - - - - - -
20/01:30am 14.7 CALM 0 0 1004.8 - 0.0 - - - - - - -
20/01:00am 14.5 ESE 4 5 1003.9 - 0.0 - - - - - - -
20/12:30am 14.8 ESE 2 4 1004.1 - 0.0 - - - - - - -
20/12:00am 14.6 E 5 7 1004.4 - 0.0 - - - - - - -
 
Date/Time
EDT
Temp
°C
Wind Pressure Rain since
9am
mm
Weather Cloud Vis
km
Sea
Height
m
Swell
Dir  Spd
kts
Gust
kts
hPa Trend Height
m
Period
s
Dir
19/11:30pm 14.7 E 7 8 1004.5 - 0.0 - - - - - - -
19/11:00pm 13.9 SE 3 5 1005.4 - 0.0 - - - - - - -
19/10:30pm 14.2 SSE 3 6 1006.2 - 0.0 - - - - - - -
19/10:00pm 14.0 SSE 5 6 1006.5 - 0.0 - - - - - - -
19/09:30pm 14.1 SE 5 6 1007.0 - 0.0 - - - - - - -
19/09:00pm 14.9 SSE 5 8 1007.5 - 0.0 - - - - - - -
19/08:30pm 15.3 S 6 9 1007.7 - 0.0 - - - - - - -
19/08:00pm 15.4 S 8 11 1008.2 - 0.0 - - - - - - -
19/07:30pm 15.6 S 12 15 1008.5 - 0.0 - - - - - - -
19/07:00pm 15.7 S 11 14 1009.1 - 0.0 - - - - - - -
19/06:30pm 15.9 S 12 15 1009.6 - 0.0 - - - - - - -
19/06:00pm 15.9 S 13 16 1009.5 - 0.0 - - - - - - -
19/05:30pm 16.2 S 16 19 1010.0 - 0.0 - - - - - - -
19/05:00pm 16.9 S 16 20 1010.0 - 0.0 - - - - - - -
19/04:30pm 16.9 SSW 17 21 1010.3 - 0.0 - - - - - - -
19/04:00pm 16.8 S 16 19 1010.2 - 0.0 - - - - - - -
19/03:30pm 17.0 S 16 19 1010.7 - 0.0 - - - - - - -
19/03:00pm 16.6 S 16 19 1011.4 - 0.0 - - - - - - -
19/02:30pm 16.3 S 16 19 1012.1 - 0.0 - - - - - - -
19/02:00pm 17.1 S 17 21 1012.7 - 0.0 - - - - - - -
19/01:30pm 17.1 S 16 20 1013.4 - 0.0 - - - - - - -
19/01:00pm 16.5 S 15 19 1013.8 - 0.0 - - - - - - -
19/12:30pm 16.4 SSW 14 17 1014.5 - 0.0 - - - - - - -
19/12:00pm 17.8 SSW 10 13 1014.8 - 0.0 - - - - - - -
19/11:30am 17.1 SSE 5 9 1015.3 - 0.0 - - - - - - -
19/11:00am 16.4 SE 9 13 1015.6 - 0.0 - - - - - - -
19/10:30am 16.4 SE 10 15 1016.1 - 0.0 - - - - - - -
19/10:00am 14.9 ESE 11 16 1016.6 - 0.0 - - - - - - -
19/09:30am 15.3 SE 10 14 1016.9 - 0.0 - - - - - - -
19/09:00am 14.2 ESE 9 13 1017.2 - 0.2 - - - - - - -
19/08:30am 13.4 ESE 9 13 1017.3 - 0.2 - - - - - - -
19/08:00am 12.8 ESE 8 11 1017.3 - 0.2 - - - - - - -
19/07:30am 11.9 ESE 8 11 1017.2 - 0.2 - - - - - - -
19/07:00am 10.8 ESE 7 9 1017.0 - 0.2 - - - - - - -
19/06:30am 9.7 ESE 7 9 1016.9 - 0.2 - - - - - - -
19/06:00am 9.7 ESE 7 9 1016.7 - 0.2 - - - - - - -
19/05:30am 10.1 ESE 7 8 1016.5 - 0.2 - - - - - - -
19/05:00am 10.1 ESE 8 9 1016.4 - 0.2 - - - - - - -
19/04:30am 10.0 ESE 7 7 1016.2 - 0.2 - - - - - - -
19/04:00am 9.9 ESE 8 9 1016.4 - 0.2 - - - - - - -
19/03:30am 9.6 SE 6 7 1016.7 - 0.2 - - - - - - -
19/03:00am 10.0 SE 6 7 1016.8 - 0.2 - - - - - - -
19/02:30am 11.0 ESE 6 7 1017.2 - 0.2 - - - - - - -
19/02:00am 11.3 ESE 5 7 1017.8 - 0.2 - - - - - - -
19/01:30am 11.4 E 5 6 1018.0 - 0.2 - - - - - - -
19/01:00am 10.8 E 5 6 1018.1 - 0.2 - - - - - - -
19/12:30am 10.4 SE 4 5 1018.0 - 0.2 - - - - - - -
19/12:00am 10.7 SSE 4 6 1018.2 - 0.2 - - - - - - -
 
Date/Time
EDT
Temp
°C
Wind Pressure Rain since
9am
mm
Weather Cloud Vis
km
Sea
Height
m
Swell
Dir  Spd
kts
Gust
kts
hPa Trend Height
m
Period
s
Dir
18/11:30pm 10.9 SE 5 6 1018.2 - 0.2 - - - - - - -
18/11:00pm 11.8 SE 5 6 1018.2 - 0.2 - - - - - - -
18/10:30pm 12.6 SSE 7 12 1018.1 - 0.2 - - - - - - -
18/10:00pm 12.5 SSE 9 16 1018.0 - 0.2 - - - - - - -
18/09:30pm 13.2 S 12 16 1017.8 - 0.2 - - - - - - -
18/09:00pm 13.3 SSW 16 19 1017.5 - 0.2 - - - - - - -
18/08:30pm 13.6 S 15 18 1017.4 - 0.2 - - - - - - -
18/08:00pm 13.9 SSW 20 23 1017.0 - 0.2 - - - - - - -
18/07:30pm 14.7 SSW 19 23 1016.7 - 0.2 - - - - - - -
18/07:00pm 14.1 SSW 18 21 1016.5 - 0.2 - - - - - - -
18/06:30pm 14.4 SSW 17 20 1016.3 - 0.2 - - - - - - -
18/06:00pm 15.5 SSW 18 22 1016.0 - 0.2 - - - - - - -
18/05:30pm 15.4 SSW 19 22 1015.7 - 0.2 - - - - - - -
18/05:00pm 15.8 SSW 19 22 1015.6 - 0.2 - - - - - - -
18/04:30pm 16.4 SSW 20 23 1015.3 - 0.2 - - - - - - -
18/04:00pm 16.0 SSW 22 25 1015.2 - 0.2 - - - - - - -
18/03:30pm 16.1 SSW 21 24 1015.1 - 0.2 - - - - - - -
18/03:00pm 16.8 SSW 20 25 1014.9 - 0.2 - - - - - - -
18/02:30pm 16.7 SSW 22 26 1014.8 - 0.2 - - - - - - -
18/02:00pm 16.3 SSW 20 23 1014.5 - 0.2 - - - - - - -
18/01:30pm 15.3 SSW 21 25 1014.1 - 0.2 - - - - - - -
18/01:00pm 15.9 SSW 23 28 1013.8 - 0.2 - - - - - - -
18/12:30pm 15.3 SSW 24 27 1013.5 - 0.2 - - - - - - -
18/12:00pm 15.1 SSW 23 27 1012.9 - 0.2 - - - - - - -
18/11:30am 15.8 SW 25 29 1012.4 - 0.2 - - - - - - -
18/11:00am 14.9 SSW 25 30 1011.9 - 0.2 - - - - - - -
18/10:30am 15.4 SW 26 32 1011.6 - 0.2 - - - - - - -
18/10:00am 14.7 SSW 25 31 1011.0 - 0.0 - - - - - - -
18/09:30am 14.5 SW 27 31 1010.5 - 0.0 - - - - - - -
18/09:00am 14.2 SW 26 31 1010.2 - 0.6 - - - - - - -
18/08:30am 14.3 SW 24 28 1009.9 - 0.6 - - - - - - -
18/08:00am 13.7 SW 26 31 1009.3 - 0.6 - - - - - - -
18/07:30am 13.7 SW 26 30 1009.0 - 0.6 - - - - - - -
18/07:00am 12.8 SW 25 33 1008.5 - 0.6 - - - - - - -
18/06:30am 13.8 SW 24 27 1008.1 - 0.6 - - - - - - -
18/06:00am 13.6 SW 25 29 1007.4 - 0.6 - - - - - - -
18/05:30am 13.5 SW 24 28 1006.8 - 0.6 - - - - - - -
18/05:00am 13.6 WSW 25 29 1006.4 - 0.6 - - - - - - -
18/04:30am 13.9 SW 28 33 1006.0 - 0.6 - - - - - - -
18/04:00am 13.8 WSW 26 29 1005.6 - 0.6 - - - - - - -
18/03:30am 13.2 WSW 19 24 1005.5 - 0.6 - - - - - - -
18/03:06am 13.3 WSW 20 29 1005.4 - 0.6 - - - - - - -
18/03:03am 14.6 W 17 28 1005.6 - 0.6 - - - - - - -
18/03:00am 14.4 W 17 25 1005.4 - 0.6 - - - - - - -
18/02:30am 14.5 W 17 22 1005.8 - 0.6 - - - - - - -
18/02:00am 14.2 W 17 24 1006.1 - 0.6 - - - - - - -
18/01:30am 14.2 WSW 16 20 1006.2 - 0.6 - - - - - - -
18/01:00am 14.0 WSW 16 21 1006.1 - 0.6 - - - - - - -
18/12:30am 14.2 WSW 16 21 1006.0 - 0.6 - - - - - - -
18/12:00am 14.2 W 14 19 1006.2 - 0.6 - - - - - - -
 
Date/Time
EDT
Temp
°C
Wind Pressure Rain since
9am
mm
Weather Cloud Vis
km
Sea
Height
m
Swell
Dir  Spd
kts
Gust
kts
hPa Trend Height
m
Period
s
Dir
17/11:30pm 14.0 WSW 18 23 1006.0 - 0.6 - - - - - - -
17/11:00pm 14.6 WSW 14 19 1006.3 - 0.6 - - - - - - -

Other Formats:

Comma delimited format used in spreadsheet applications
http://www.bom.gov.au/fwo/IDT60701/IDT60701.94974.axf

JavaScript Object Notation format (JSON) in row-major order
http://www.bom.gov.au/fwo/IDT60701/IDT60701.94974.json